Donaldson, Indiana
Current Conditions -  °F | °C
As of 5:15 AM on Saturday 22 Nov 2014 (Local Time) from KOXI Reporting Station
Overcast Overcast  
Wind Chill: 26°   Ceiling: 2000
Heat Index: 32°   Visibility: 2mi
Dew Point: 30°   Wind: 7mph
Humidity: 94%   Direction: 200°SSW
Pressure: 30.14"   Gusts: NA
Location:  41.36°N, 86.44°W
Report Text: KOXI 221015Z AUTO 20006KT 2SM SCT007 OVC020 00/M01 A3014 RMK AO1 T00001009
Loading
Personal Weather Stations






























Interactive Weather Map New forecast layout! Learn more

10-Day Weather Forecast

Advertisements
Track Severe Weather on mobile